Time;durP1;ratioP1;P1;durP2;ratioP2;P2;SDS_P1;SDS_P2;PMS_P1;PMS_P2;Temp;Humidity;BMP_temperature;BMP_pressure;BME280_temperature;BME280_humidity;BME280_pressure;Samples;Min_cycle;Max_cycle;Signal;HPM_P1;HPM_P2
2023/06/11 08:57:31;;;;;;;6.90;5.03;;;;;;;25.88;52.63;101294.78;5056390;28;20416;-70
2023/06/11 08:59:56;;;;;;;6.15;4.80;;;;;;;26.04;52.12;101286.91;5069917;28;20059;-70
2023/06/11 09:02:22;;;;;;;7.82;5.22;;;;;;;25.98;51.69;101283.47;5042863;27;20049;-69
2023/06/11 09:04:47;;;;;;;10.35;4.85;;;;;;;26.16;52.14;101289.06;5028229;28;20061;-70
2023/06/11 09:07:23;;;;;;;6.95;5.25;;;;;;;26.18;50.47;101286.81;5029903;28;20030;-70
2023/06/11 09:10:04;;;;;;;8.80;5.10;;;;;;;26.29;51.80;101288.13;5035793;28;20037;-69
2023/06/11 09:12:29;;;;;;;;;;;;;;;26.31;52.38;101291.41;5041917;28;20396;-69
2023/06/11 09:14:55;;;;;;;8.30;4.90;;;;;;;26.47;51.49;101282.66;5021893;28;19917;-69
2023/06/11 09:17:20;;;;;;;7.40;5.05;;;;;;;26.60;50.69;101289.19;5045235;28;20442;-69
2023/06/11 09:19:46;;;;;;;7.95;5.10;;;;;;;26.60;50.86;101276.16;5049520;28;20056;-69
2023/06/11 09:22:11;;;;;;;6.97;4.88;;;;;;;26.69;50.63;101279.78;5048619;28;20033;-70
2023/06/11 09:24:37;;;;;;;5.85;4.72;;;;;;;26.67;49.38;101273.72;5035440;28;20030;-68
2023/06/11 09:27:02;;;;;;;6.15;4.90;;;;;;;26.61;49.05;101276.97;5015924;28;20539;-69
2023/06/11 09:29:28;;;;;;;7.07;4.75;;;;;;;26.63;49.98;101274.66;5011430;28;20033;-69
2023/06/11 09:32:04;;;;;;;8.30;4.80;;;;;;;26.70;49.42;101273.06;5016954;28;20380;-69
2023/06/11 09:34:29;;;;;;;6.40;5.00;;;;;;;26.77;48.67;101280.09;5029191;28;20428;-69
2023/06/11 09:36:55;;;;;;;6.88;4.97;;;;;;;26.75;48.56;101276.84;5027721;28;20034;-69
2023/06/11 09:39:21;;;;;;;7.32;5.20;;;;;;;26.93;49.49;101277.69;5029387;28;20036;-69
2023/06/11 09:41:51;;;;;;;8.30;4.65;;;;;;;26.87;47.90;101277.00;5027284;28;20108;-69
2023/06/11 09:44:17;;;;;;;8.20;4.30;;;;;;;26.97;47.60;101278.66;5029312;28;20026;-69
2023/06/11 09:46:43;;;;;;;7.18;4.57;;;;;;;27.01;47.46;101287.94;5030034;28;20034;-70
2023/06/11 09:49:09;;;;;;;8.02;4.88;;;;;;;27.11;47.68;101282.06;5008455;28;20037;-71
2023/06/11 09:51:35;;;;;;;12.18;5.05;;;;;;;27.14;46.83;101291.72;5008290;28;20027;-70
2023/06/11 09:54:02;;;;;;;6.82;4.82;;;;;;;27.30;47.22;101290.09;5011214;28;20034;-70
2023/06/11 09:56:29;;;;;;;5.50;4.30;;;;;;;27.20;44.95;101293.19;5008828;28;20046;-67
2023/06/11 09:58:56;;;;;;;4.70;4.22;;;;;;;27.32;44.86;101290.59;5010378;28;20037;-71
2023/06/11 10:01:25;;;;;;;6.35;4.40;;;;;;;27.47;45.43;101288.47;5025565;28;20049;-68
2023/06/11 10:03:50;;;;;;;5.65;4.03;;;;;;;27.58;44.40;101285.00;5025734;28;20069;-71
2023/06/11 10:06:22;;;;;;;7.55;4.00;;;;;;;27.65;44.40;101297.59;5012440;28;20046;-70
2023/06/11 10:08:50;;;;;;;6.53;4.07;;;;;;;27.68;42.38;101289.38;4995448;28;20482;-69
2023/06/11 10:11:19;;;;;;;4.43;3.72;;;;;;;27.82;42.54;101286.41;4995733;28;20030;-70
2023/06/11 10:13:59;;;;;;;17.48;4.43;;;;;;;27.93;42.73;101297.97;4995692;28;20026;-69
2023/06/11 10:16:25;;;;;;;7.30;4.03;;;;;;;28.04;43.11;101288.16;4995439;28;20076;-69
2023/06/11 10:18:52;;;;;;;10.82;4.20;;;;;;;27.90;41.83;101296.69;4995654;28;20038;-69
2023/06/11 10:21:18;;;;;;;7.32;4.05;;;;;;;28.04;42.86;101282.59;4995794;28;20048;-69
2023/06/11 10:23:51;;;;;;;4.45;3.40;;;;;;;28.17;42.14;101288.25;4995428;28;20037;-69
2023/06/11 10:26:16;;;;;;;5.97;3.97;;;;;;;28.26;41.26;101291.81;4995303;28;20114;-69
2023/06/11 10:28:51;;;;;;;4.57;4.18;;;;;;;28.37;41.93;101287.50;4994264;28;20117;-69
2023/06/11 10:31:27;;;;;;;4.68;3.95;;;;;;;28.39;42.16;101282.41;4995601;28;20034;-69
2023/06/11 10:34:01;;;;;;;6.53;4.50;;;;;;;28.43;42.07;101286.16;4995635;28;20034;-69
2023/06/11 10:36:34;;;;;;;4.63;4.05;;;;;;;28.52;42.80;101285.28;4994176;28;20045;-70
2023/06/11 10:39:08;;;;;;;8.35;4.20;;;;;;;28.64;42.93;101272.31;4995247;28;20023;-69
2023/06/11 10:41:41;;;;;;;5.93;4.40;;;;;;;28.75;42.24;101283.84;4993524;28;20564;-71
2023/06/11 10:44:10;;;;;;;7.53;4.13;;;;;;;28.66;41.31;101274.75;5010402;28;20038;-69
2023/06/11 10:46:48;;;;;;;6.78;3.97;;;;;;;28.64;40.89;101272.31;4993535;28;20045;-70
2023/06/11 10:49:14;;;;;;;4.32;3.80;;;;;;;28.69;40.10;101273.28;4995337;28;20098;-69
2023/06/11 10:51:40;;;;;;;6.85;3.90;;;;;;;28.62;40.83;101269.03;4994811;28;20030;-68
2023/06/11 10:54:07;;;;;;;7.07;3.80;;;;;;;28.69;40.48;101273.28;4993978;28;20034;-70
2023/06/11 10:56:36;;;;;;;7.00;4.25;;;;;;;28.91;40.79;101274.88;4998128;28;21741;-70
2023/06/11 10:59:07;;;;;;;10.10;4.28;;;;;;;28.99;40.50;101274.81;5004940;28;20030;-69
2023/06/11 11:01:33;;;;;;;4.78;3.90;;;;;;;29.11;40.97;101282.44;4995522;28;20026;-70
2023/06/11 11:04:01;;;;;;;7.28;3.85;;;;;;;29.10;40.10;101268.84;5001519;28;20030;-68
2023/06/11 11:06:28;;;;;;;4.82;3.95;;;;;;;29.20;39.02;101275.94;4998431;28;20398;-69
2023/06/11 11:08:57;;;;;;;5.13;3.60;;;;;;;29.33;40.46;101275.72;5004964;28;20033;-71
2023/06/11 11:11:27;;;;;;;4.93;3.92;;;;;;;29.40;39.17;101277.13;5031446;28;20531;-69
2023/06/11 11:13:53;;;;;;;8.20;4.32;;;;;;;29.43;38.75;101271.66;5023381;28;20497;-70
2023/06/11 11:16:21;;;;;;;5.55;4.13;;;;;;;29.43;39.06;101270.84;5034097;28;20087;-69
2023/06/11 11:18:48;;;;;;;4.18;3.38;;;;;;;29.49;39.23;101273.06;5033012;28;20072;-69
2023/06/11 11:21:14;;;;;;;6.30;3.60;;;;;;;29.59;37.66;101268.22;5011718;28;20030;-69
2023/06/11 11:23:40;;;;;;;5.57;3.45;;;;;;;29.55;37.08;101259.72;5012944;28;20034;-67
2023/06/11 11:26:05;;;;;;;6.07;3.30;;;;;;;29.60;36.63;101261.47;5007746;28;20133;-69
2023/06/11 11:28:32;;;;;;;4.05;3.47;;;;;;;29.63;37.01;101260.78;5012484;28;20034;-69
2023/06/11 11:30:59;;;;;;;8.75;3.42;;;;;;;29.77;37.35;101266.84;5008842;28;20038;-70
2023/06/11 11:33:25;;;;;;;4.35;3.40;;;;;;;29.81;37.62;101262.22;5008911;28;20149;-68
2023/06/11 11:35:53;;;;;;;6.85;3.30;;;;;;;29.76;36.46;101259.66;4997056;28;20117;-70
2023/06/11 11:38:19;;;;;;;7.35;3.50;;;;;;;29.82;36.86;101261.09;5000881;28;20031;-70
2023/06/11 11:40:45;;;;;;;7.03;3.60;;;;;;;29.90;38.08;101256.56;4992969;28;20030;-69
2023/06/11 11:43:13;;;;;;;5.00;3.33;;;;;;;30.00;35.76;101263.63;4993723;28;20042;-70
2023/06/11 11:45:39;;;;;;;7.05;3.00;;;;;;;30.11;36.52;101264.00;4993559;28;20470;-69
2023/06/11 11:48:07;;;;;;;4.85;3.05;;;;;;;30.16;35.41;101264.56;4995404;28;20053;-68
2023/06/11 11:50:33;;;;;;;5.93;3.15;;;;;;;30.23;34.35;101256.44;5006878;28;20034;-69
2023/06/11 11:53:11;;;;;;;4.78;3.35;;;;;;;30.36;35.36;101259.22;4993024;28;20492;-67
2023/06/11 11:55:40;;;;;;;5.95;3.30;;;;;;;30.36;35.69;101253.63;4991716;28;20073;-69
2023/06/11 11:58:07;;;;;;;3.47;2.90;;;;;;;30.45;35.91;101243.16;4993144;28;20033;-69
2023/06/11 12:00:33;;;;;;;4.00;2.97;;;;;;;30.50;34.76;101248.53;4998659;28;20486;-71
2023/06/11 12:03:07;;;;;;;3.75;2.70;;;;;;;30.65;35.19;101251.75;4990695;28;20164;-69
2023/06/11 12:05:33;;;;;;;5.65;3.10;;;;;;;30.63;34.29;101252.09;4997432;28;20029;-68
2023/06/11 12:07:58;;;;;;;4.03;2.65;;;;;;;30.78;35.13;101250.53;5002022;28;20037;-69
2023/06/11 12:10:26;;;;;;;6.53;3.05;;;;;;;30.82;34.03;101248.69;5001718;28;20041;-69
2023/06/11 12:12:52;;;;;;;3.75;2.80;;;;;;;30.96;34.47;101239.09;5013160;28;20029;-69
2023/06/11 12:15:17;;;;;;;4.97;2.70;;;;;;;30.92;33.91;101239.81;5010094;28;20092;-69
2023/06/11 12:17:44;;;;;;;5.05;2.65;;;;;;;30.98;33.43;101239.53;5013088;28;20099;-70
2023/06/11 12:20:10;;;;;;;9.75;3.20;;;;;;;30.93;33.43;101235.84;5014754;28;20064;-69
2023/06/11 12:22:36;;;;;;;4.28;2.60;;;;;;;31.00;33.38;101237.25;5031686;28;20025;-70
2023/06/11 12:25:01;;;;;;;5.35;2.72;;;;;;;31.01;33.32;101233.25;5028815;28;20041;-69
2023/06/11 12:27:27;;;;;;;6.25;2.92;;;;;;;31.08;33.42;101239.88;5010842;28;20032;-70
2023/06/11 12:29:53;;;;;;;6.68;3.13;;;;;;;31.11;33.60;101235.56;4992965;28;20452;-70
2023/06/11 12:32:21;;;;;;;13.10;3.40;;;;;;;31.15;33.24;101239.28;4993075;28;20044;-69
2023/06/11 12:34:46;;;;;;;8.07;3.10;;;;;;;31.12;33.36;101228.81;4993649;28;20034;-70
2023/06/11 12:37:12;;;;;;;5.63;2.67;;;;;;;31.24;32.95;101228.75;4993288;28;20034;-70
2023/06/11 12:39:37;;;;;;;6.15;2.78;;;;;;;31.24;32.32;101219.53;4993435;28;20030;-70
2023/06/11 12:42:03;;;;;;;5.50;2.60;;;;;;;31.37;32.94;101228.66;5000945;28;20056;-69
2023/06/11 12:44:28;;;;;;;6.68;2.80;;;;;;;31.39;32.94;101221.56;5001371;28;20363;-70
2023/06/11 12:46:54;;;;;;;3.55;2.80;;;;;;;31.44;32.42;101218.47;4995367;28;20061;-70
2023/06/11 12:49:21;;;;;;;8.07;2.80;;;;;;;31.45;31.58;101230.50;5003230;28;20120;-70
2023/06/11 12:51:48;;;;;;;4.30;2.63;;;;;;;31.40;31.06;101217.59;5012899;28;20084;-69
2023/06/11 12:54:15;;;;;;;3.45;2.60;;;;;;;31.57;32.12;101216.44;5011670;28;20025;-70
2023/06/11 12:56:40;;;;;;;5.28;2.42;;;;;;;31.70;30.87;101231.16;5006931;28;20038;-70
2023/06/11 12:59:05;;;;;;;8.23;2.50;;;;;;;31.72;30.01;101217.63;5011329;28;20060;-70
2023/06/11 13:01:31;;;;;;;5.78;2.88;;;;;;;31.81;29.24;101237.00;5017039;28;20080;-68
2023/06/11 13:03:56;;;;;;;4.88;2.60;;;;;;;31.82;29.28;101224.66;5021725;28;20461;-69
2023/06/11 13:06:21;;;;;;;6.03;2.63;;;;;;;31.91;29.43;101230.06;5014077;28;20030;-69
2023/06/11 13:08:47;;;;;;;6.45;2.60;;;;;;;32.06;29.20;101232.03;5030877;28;20770;-69
2023/06/11 13:11:12;;;;;;;5.78;2.65;;;;;;;32.03;28.61;101224.38;5029423;28;20029;-69
2023/06/11 13:13:37;;;;;;;3.65;2.75;;;;;;;32.10;29.04;101226.53;5032427;28;20373;-69
2023/06/11 13:16:03;;;;;;;4.47;2.60;;;;;;;32.15;29.29;101229.06;5030744;28;20452;-69
2023/06/11 13:18:28;;;;;;;5.00;2.80;;;;;;;32.23;29.18;101228.06;5027638;28;20034;-71
2023/06/11 13:20:54;;;;;;;5.65;2.70;;;;;;;32.33;29.05;101218.28;5019942;28;20429;-68
2023/06/11 13:23:20;;;;;;;5.60;2.70;;;;;;;32.40;28.64;101223.22;5031290;28;20448;-68
2023/06/11 13:25:46;;;;;;;4.63;2.78;;;;;;;32.35;28.26;101229.94;5034843;28;20046;-70
2023/06/11 13:28:11;;;;;;;5.60;2.90;;;;;;;32.35;28.59;101220.72;5025080;28;21081;-68
2023/06/11 13:30:37;;;;;;;5.83;2.70;;;;;;;32.34;28.35;101228.31;5032219;28;20427;-68
2023/06/11 13:33:02;;;;;;;6.45;3.20;;;;;;;32.51;29.04;101225.09;5031973;28;20273;-68
2023/06/11 13:35:28;;;;;;;4.63;3.00;;;;;;;32.55;28.15;101208.38;5030268;28;20542;-69
2023/06/11 13:37:53;;;;;;;10.15;2.63;;;;;;;32.59;28.20;101214.84;5029788;28;20037;-68
2023/06/11 13:40:19;;;;;;;7.20;2.55;;;;;;;32.83;28.62;101215.78;5031011;28;20037;-70
2023/06/11 13:42:44;;;;;;;5.05;2.55;;;;;;;32.83;27.67;101213.78;5026942;28;20064;-69
2023/06/11 13:45:10;;;;;;;6.88;2.90;;;;;;;32.79;27.69;101220.50;5015866;28;20041;-68
2023/06/11 13:47:35;;;;;;;8.48;2.78;;;;;;;32.76;27.15;101219.25;5015284;28;20029;-69
2023/06/11 13:50:00;;;;;;;4.30;2.60;;;;;;;32.80;27.07;101220.13;5025386;28;20722;-69
2023/06/11 13:52:26;;;;;;;5.55;2.63;;;;;;;32.88;27.51;101212.66;5015592;28;20160;-69
2023/06/11 13:54:51;;;;;;;6.97;2.78;;;;;;;32.91;27.82;101217.53;5015235;28;20109;-69
2023/06/11 13:57:17;;;;;;;7.05;3.00;;;;;;;32.82;26.99;101216.94;5014838;28;20046;-69
2023/06/11 13:59:42;;;;;;;4.63;2.95;;;;;;;32.78;27.14;101210.47;5014086;28;20488;-70
2023/06/11 14:02:08;;;;;;;6.20;2.95;;;;;;;32.79;27.43;101206.47;5023688;28;20045;-69
2023/06/11 14:04:33;;;;;;;6.53;2.92;;;;;;;32.90;27.02;101201.91;5031259;28;21576;-69
2023/06/11 14:07:00;;;;;;;8.70;3.00;;;;;;;32.88;26.68;101198.66;5028417;28;20038;-68
2023/06/11 14:09:26;;;;;;;6.38;3.08;;;;;;;33.21;27.54;101200.13;5031990;28;20120;-68
2023/06/11 14:11:51;;;;;;;3.78;2.53;;;;;;;33.12;26.55;101197.50;5032952;28;20459;-68
2023/06/11 14:14:16;;;;;;;5.30;2.80;;;;;;;33.12;27.24;101191.09;5014285;28;20088;-69
2023/06/11 14:16:42;;;;;;;8.68;2.95;;;;;;;33.26;26.22;101208.25;5015233;28;20429;-67
2023/06/11 14:19:09;;;;;;;5.80;2.80;;;;;;;33.11;26.39;101195.09;5015563;28;20101;-68
2023/06/11 14:21:35;;;;;;;12.15;3.00;;;;;;;33.09;26.28;101189.03;5014883;28;20036;-69
2023/06/11 14:24:01;;;;;;;11.32;3.25;;;;;;;33.09;26.46;101186.25;5014239;28;20388;-68
2023/06/11 14:26:26;;;;;;;6.85;2.78;;;;;;;33.24;26.49;101182.53;5015192;28;20053;-68
2023/06/11 14:28:52;;;;;;;5.97;2.95;;;;;;;33.35;26.77;101193.94;5032984;28;20025;-68
2023/06/11 14:31:18;;;;;;;6.03;2.80;;;;;;;33.26;26.24;101191.41;5035040;28;20039;-67
2023/06/11 14:33:43;;;;;;;2.95;2.42;;;;;;;33.26;25.43;101191.41;5034997;28;20072;-67
2023/06/11 14:36:09;;;;;;;3.78;3.00;;;;;;;33.22;26.61;101196.13;5033371;28;20475;-68
2023/06/11 14:38:34;;;;;;;4.90;2.78;;;;;;;33.21;25.82;101189.69;5015932;28;20060;-68
2023/06/11 14:41:00;;;;;;;4.72;2.92;;;;;;;33.29;26.64;101179.44;5014872;28;20030;-70
2023/06/11 14:43:25;;;;;;;3.20;2.90;;;;;;;33.30;25.54;101180.25;5020503;28;20033;-69
2023/06/11 14:45:51;;;;;;;3.83;2.90;;;;;;;33.34;25.71;101186.75;5014570;28;20033;-69
2023/06/11 14:48:16;;;;;;;3.00;2.70;;;;;;;33.40;25.69;101179.63;5014919;28;20034;-67
2023/06/11 14:50:41;;;;;;;8.38;3.10;;;;;;;33.38;25.78;101182.81;5024213;28;20476;-66
2023/06/11 14:53:10;;;;;;;4.63;3.00;;;;;;;33.50;26.41;101179.00;5023177;28;20038;-67
2023/06/11 14:55:36;;;;;;;6.82;2.70;;;;;;;33.44;26.46;101168.47;5022797;28;20132;-68
2023/06/11 14:58:01;;;;;;;5.88;2.80;;;;;;;33.47;25.98;101168.53;5025251;28;20101;-68
2023/06/11 15:00:26;;;;;;;5.50;2.83;;;;;;;33.60;26.78;101171.16;5017653;28;20029;-67
2023/06/11 15:02:52;;;;;;;5.50;2.70;;;;;;;33.79;25.35;101162.66;5023838;28;20308;-68
2023/06/11 15:05:17;;;;;;;5.90;2.70;;;;;;;33.86;25.41;101167.56;5029361;28;20291;-68
2023/06/11 15:07:42;;;;;;;8.18;2.85;;;;;;;33.86;25.28;101165.56;5046603;28;20025;-67
2023/06/11 15:10:09;;;;;;;5.43;3.08;;;;;;;34.01;24.34;101160.97;5033832;28;20137;-68
2023/06/11 15:12:34;;;;;;;18.88;3.20;;;;;;;34.05;24.92;101170.25;5037032;28;20116;-68
2023/06/11 15:15:00;;;;;;;7.53;2.95;;;;;;;33.94;25.33;101172.13;5032346;28;20151;-69
2023/06/11 15:17:29;;;;;;;5.30;2.95;;;;;;;33.77;24.67;101164.22;5028433;28;20079;-68
2023/06/11 15:19:54;;;;;;;6.25;2.92;;;;;;;33.84;25.33;101165.13;5025282;28;20032;-69
2023/06/11 15:22:19;;;;;;;4.13;2.90;;;;;;;33.93;25.38;101150.84;5018656;28;20119;-69
2023/06/11 15:24:45;;;;;;;4.05;2.60;;;;;;;34.11;25.43;101150.25;5038977;28;20304;-70
2023/06/11 15:27:16;;;;;;;4.57;2.73;;;;;;;33.98;25.00;101150.50;5033420;28;20039;-68
2023/06/11 15:29:42;;;;;;;4.53;2.92;;;;;;;33.76;24.95;101140.97;5022694;28;20269;-71
2023/06/11 15:32:07;;;;;;;6.50;2.95;;;;;;;34.07;25.77;101139.78;5023135;28;20475;-67
2023/06/11 15:34:33;;;;;;;5.00;3.03;;;;;;;33.70;26.05;101146.06;5022954;28;20117;-67
2023/06/11 15:36:58;;;;;;;5.03;3.00;;;;;;;33.88;26.04;101160.41;5015364;28;20284;-69
2023/06/11 15:39:23;;;;;;;5.53;2.83;;;;;;;33.72;25.81;101145.69;5013986;28;20628;-67
2023/06/11 15:41:48;;;;;;;8.43;3.07;;;;;;;33.87;25.62;101153.16;5013234;28;20770;-69
2023/06/11 15:44:14;;;;;;;5.87;3.10;;;;;;;33.77;26.06;101147.38;5026203;28;20292;-72
2023/06/11 15:46:39;;;;;;;4.75;3.08;;;;;;;33.84;25.63;101147.50;5033512;28;20298;-71
2023/06/11 15:49:05;;;;;;;7.77;3.30;;;;;;;33.99;26.38;101149.31;5032138;28;20079;-71
2023/06/11 15:51:30;;;;;;;8.18;3.28;;;;;;;34.22;24.81;101148.44;5027854;28;20732;-69
2023/06/11 15:53:55;;;;;;;5.28;2.80;;;;;;;34.53;24.86;101154.84;5021857;28;20637;-70
2023/06/11 15:56:21;;;;;;;3.22;2.60;;;;;;;34.98;23.99;101144.53;5018388;28;20060;-70
2023/06/11 15:58:46;;;;;;;4.30;2.92;;;;;;;35.27;23.77;101142.03;5013462;28;20458;-72
2023/06/11 16:01:11;;;;;;;5.60;3.23;;;;;;;35.51;23.85;101151.06;5044728;28;20046;-69
2023/06/11 16:03:36;;;;;;;5.60;3.17;;;;;;;35.11;24.11;101139.47;5020677;28;20729;-71
2023/06/11 16:06:02;;;;;;;7.23;3.00;;;;;;;34.63;24.89;101145.75;5012911;28;20030;-69
